Time;durP1;ratioP1;P1;durP2;ratioP2;P2;SDS_P1;SDS_P2;PMS_P1;PMS_P2;Temp;Humidity;BMP_temperature;BMP_pressure;BME280_temperature;BME280_humidity;BME280_pressure;Samples;Min_cycle;Max_cycle;Signal;HPM_P1;HPM_P2
2024/01/31 00:00:16;;;;;;;;;14.50;14.00;;;;;9.68;55.21;102821.66;5137323;27;45336;-87
2024/01/31 00:02:41;;;;;;;;;18.50;15.00;;;;;9.67;55.67;102819.03;5134238;27;45324;-88
2024/01/31 00:05:06;;;;;;;;;23.50;21.00;;;;;9.65;56.06;102820.84;5133390;27;45486;-85
2024/01/31 00:07:32;;;;;;;;;14.25;14.25;;;;;9.59;56.03;102802.34;5135088;27;46719;-86
2024/01/31 00:09:57;;;;;;;;;12.75;10.00;;;;;9.64;55.89;102813.78;5102871;27;45331;-87
2024/01/31 00:12:23;;;;;;;;;15.25;14.00;;;;;9.58;56.21;102798.81;5121258;27;45711;-86
2024/01/31 00:14:48;;;;;;;;;11.50;11.00;;;;;9.68;55.43;102800.41;5122105;27;45399;-87
2024/01/31 00:17:13;;;;;;;;;17.75;14.00;;;;;9.49;55.70;102760.88;5123404;27;45569;-87
2024/01/31 00:19:39;;;;;;;;;13.00;12.00;;;;;9.85;55.56;102816.06;5120831;27;50463;-88
2024/01/31 00:22:04;;;;;;;;;8.50;8.50;;;;;9.79;56.32;102818.81;5122416;27;45521;-87
2024/01/31 00:24:29;;;;;;;;;15.25;15.25;;;;;9.63;55.39;102796.06;5137607;27;45274;-89
2024/01/31 00:26:55;;;;;;;;;19.00;15.00;;;;;9.68;56.26;102818.13;5116695;27;47772;-88
2024/01/31 00:29:20;;;;;;;;;14.50;14.50;;;;;9.56;56.13;102789.13;5133615;27;45398;-88
2024/01/31 00:31:45;;;;;;;;;20.50;17.00;;;;;9.68;56.05;102820.78;5160181;27;45244;-88
2024/01/31 00:34:11;;;;;;;;;20.75;19.00;;;;;9.46;55.94;102783.06;5157502;27;45321;-89
2024/01/31 00:36:37;;;;;;;;;15.50;14.25;;;;;9.63;56.39;102812.88;5155278;27;55520;-88
2024/01/31 00:39:03;;;;;;;;;21.00;15.50;;;;;9.58;56.21;102800.59;5133131;27;45275;-88
2024/01/31 00:41:29;;;;;;;;;21.00;19.00;;;;;9.55;56.03;102813.91;5109265;27;45277;-87
2024/01/31 00:43:55;;;;;;;;;21.25;19.25;;;;;9.52;56.79;102803.34;5127949;27;45575;-90
2024/01/31 00:46:20;;;;;;;;;23.25;20.00;;;;;9.27;56.00;102765.69;5141802;27;45948;-86
2024/01/31 00:48:45;;;;;;;;;14.50;14.25;;;;;9.56;56.11;102797.09;5130930;27;45569;-89
2024/01/31 00:51:11;;;;;;;;;21.75;19.25;;;;;9.56;56.36;102787.34;5142559;27;45321;-87
2024/01/31 00:53:37;;;;;;;;;21.25;20.25;;;;;9.61;55.52;102789.91;5141847;27;45594;-87
2024/01/31 00:56:02;;;;;;;;;22.00;16.50;;;;;9.62;55.50;102794.31;5141527;27;46487;-89
2024/01/31 00:58:28;;;;;;;;;11.50;11.25;;;;;9.35;55.50;102759.34;5120389;27;45377;-87
2024/01/31 01:00:53;;;;;;;;;12.25;10.75;;;;;9.42;55.89;102776.06;5121918;27;46505;-89
2024/01/31 01:03:19;;;;;;;;;17.50;14.50;;;;;9.36;56.87;102777.03;5125531;27;45615;-88
2024/01/31 01:05:45;;;;;;;;;11.00;8.75;;;;;9.21;55.50;102750.72;5126311;27;45555;-86
2024/01/31 01:08:10;;;;;;;;;12.00;7.75;;;;;9.34;56.28;102762.91;5143257;27;45206;-86
2024/01/31 01:10:36;;;;;;;;;12.50;9.50;;;;;9.38;56.30;102775.25;5143606;27;45765;-84
2024/01/31 01:13:01;;;;;;;;;14.00;13.00;;;;;9.34;55.76;102767.34;5140525;27;45277;-88
2024/01/31 01:15:27;;;;;;;;;12.25;10.25;;;;;9.49;55.84;102776.81;5121570;27;46891;-88
2024/01/31 01:17:52;;;;;;;;;13.00;13.00;;;;;9.54;55.59;102788.25;5144440;27;45390;-85
2024/01/31 01:20:19;;;;;;;;;10.25;10.25;;;;;9.37;55.60;102773.47;5123036;27;46881;-86
2024/01/31 01:22:45;;;;;;;;;11.75;10.00;;;;;9.35;55.93;102761.13;5120335;27;45456;-88
2024/01/31 01:25:10;;;;;;;;;8.25;8.25;;;;;9.55;56.96;102787.34;5125013;27;45496;-87
2024/01/31 01:27:36;;;;;;;;;13.50;9.50;;;;;9.57;56.25;102769.63;5142485;27;45444;-87
2024/01/31 01:30:01;;;;;;;;;8.75;8.25;;;;;9.61;56.07;102773.97;5124481;27;45404;-86
2024/01/31 01:32:26;;;;;;;;;7.00;7.00;;;;;9.54;55.50;102759.03;5122024;27;45667;-86
2024/01/31 01:34:52;;;;;;;;;8.25;7.00;;;;;9.52;55.67;102759.06;5126427;27;54127;-86
2024/01/31 01:37:17;;;;;;;;;9.25;9.25;;;;;9.61;55.67;102772.19;5113174;27;46107;-87
2024/01/31 01:39:45;;;;;;;;;4.25;4.25;;;;;9.52;55.76;102753.75;5140291;27;45348;-87
2024/01/31 01:42:11;;;;;;;;;8.25;8.25;;;;;9.65;55.37;102775.69;5123797;27;45218;-86
2024/01/31 01:44:44;;;;;;;;;12.75;10.50;;;;;9.61;55.15;102776.63;5129605;27;45497;-86
2024/01/31 01:47:10;;;;;;;;;9.50;8.00;;;;;9.55;55.73;102766.97;5138791;27;45441;-86
2024/01/31 01:49:37;;;;;;;;;9.50;9.50;;;;;9.44;55.75;102759.19;5131486;27;45215;-85
2024/01/31 01:52:03;;;;;;;;;7.25;6.50;;;;;9.50;55.96;102765.28;5120207;27;45317;-87
2024/01/31 01:54:29;;;;;;;;;8.25;7.00;;;;;9.53;55.74;102781.19;5119607;27;45702;-88
2024/01/31 01:56:55;;;;;;;;;8.50;8.50;;;;;9.53;54.78;102784.72;5106106;27;45481;-86
2024/01/31 01:59:20;;;;;;;;;9.25;8.00;;;;;9.53;56.14;102774.09;5120205;27;45479;-86
2024/01/31 02:01:46;;;;;;;;;7.25;6.50;;;;;9.65;55.89;102778.34;5119737;27;45474;-86
2024/01/31 02:04:12;;;;;;;;;14.00;9.25;;;;;9.63;55.27;102777.47;5118542;27;46024;-86
2024/01/31 02:06:38;;;;;;;;;8.75;7.25;;;;;9.59;55.37;102770.47;5121468;27;45503;-84
2024/01/31 02:09:03;;;;;;;;;9.50;8.25;;;;;9.67;54.66;102777.41;5121130;27;45486;-87
2024/01/31 02:11:30;;;;;;;;;11.50;8.75;;;;;9.65;55.15;102765.06;5103841;27;45318;-86
2024/01/31 02:13:59;;;;;;;;;9.00;7.75;;;;;9.61;53.98;102755.38;5119073;27;45992;-85
2024/01/31 02:16:24;;;;;;;;;9.75;9.75;;;;;9.71;55.21;102763.16;5100847;27;45616;-86
2024/01/31 02:18:50;;;;;;;;;4.75;4.75;;;;;9.59;54.88;102736.78;5119938;27;45399;-85
2024/01/31 02:21:16;;;;;;;;;8.00;7.00;;;;;9.58;55.28;102729.72;5122039;27;45383;-86
2024/01/31 02:23:42;;;;;;;;;4.00;4.00;;;;;9.71;54.72;102759.63;5139567;27;46540;-88
2024/01/31 02:26:07;;;;;;;;;6.00;6.00;;;;;9.51;54.91;102727.22;5119867;27;45485;-85
2024/01/31 02:28:32;;;;;;;;;12.50;9.50;;;;;9.42;55.21;102729.13;5124227;27;45384;-86
2024/01/31 02:30:58;;;;;;;;;7.00;7.00;;;;;9.48;55.42;102753.81;5138675;27;45435;-86
2024/01/31 02:33:23;;;;;;;;;8.25;8.25;;;;;9.32;55.68;102740.81;5133881;27;45389;-86
2024/01/31 02:35:48;;;;;;;;;7.00;7.00;;;;;9.34;55.74;102746.97;5127907;27;45460;-85
2024/01/31 02:38:14;;;;;;;;;8.25;8.00;;;;;9.17;56.04;102738.41;5141698;27;45380;-88
2024/01/31 02:40:39;;;;;;;;;10.00;7.75;;;;;9.18;55.79;102745.47;5142409;27;45513;-84
2024/01/31 02:43:04;;;;;;;;;13.25;11.75;;;;;9.20;56.47;102748.97;5141383;27;45534;-86
2024/01/31 02:45:30;;;;;;;;;9.00;8.00;;;;;9.21;55.82;102761.34;5121658;27;45458;-87
2024/01/31 02:47:55;;;;;;;;;11.00;8.00;;;;;9.08;56.53;102727.94;5121157;27;45163;-87
2024/01/31 02:50:21;;;;;;;;;9.75;9.75;;;;;9.24;56.44;102750.66;5122486;27;45173;-86
2024/01/31 02:52:48;;;;;;;;;12.75;8.00;;;;;9.31;56.66;102768.25;5139508;27;45780;-87
2024/01/31 02:55:13;;;;;;;;;8.50;8.00;;;;;9.33;55.76;102766.47;5120057;27;45471;-86
2024/01/31 02:57:38;;;;;;;;;12.00;10.00;;;;;9.25;56.84;102763.06;5135438;27;45486;-84
2024/01/31 03:00:04;;;;;;;;;8.50;6.75;;;;;9.16;56.30;102752.59;5122268;27;45503;-86
2024/01/31 03:02:30;;;;;;;;;16.50;11.50;;;;;9.23;57.07;102775.47;5119151;27;45461;-86
2024/01/31 03:04:55;;;;;;;;;12.75;10.00;;;;;9.23;56.77;102775.47;5117028;27;45465;-85
2024/01/31 03:07:21;;;;;;;;;13.00;7.00;;;;;9.33;56.63;102787.69;5136773;27;45491;-87
2024/01/31 03:09:46;;;;;;;;;11.50;9.75;;;;;9.02;56.47;102728.03;5124214;27;45731;-87
2024/01/31 03:12:11;;;;;;;;;12.00;10.75;;;;;9.25;56.37;102767.50;5143771;27;49475;-87
2024/01/31 03:14:37;;;;;;;;;7.00;7.00;;;;;9.28;56.10;102773.63;5135704;27;45312;-85
2024/01/31 03:17:02;;;;;;;;;12.50;10.25;;;;;9.41;56.59;102782.28;5118794;27;45408;-85
2024/01/31 03:19:29;;;;;;;;;11.25;8.50;;;;;9.50;56.23;102790.06;5142945;27;45532;-85
2024/01/31 03:21:55;;;;;;;;;8.75;7.50;;;;;9.45;56.25;102776.00;5132592;27;46215;-86
2024/01/31 03:24:22;;;;;;;;;8.00;8.00;;;;;9.45;55.47;102776.88;5129378;27;45414;-90
2024/01/31 03:26:47;;;;;;;;;8.75;7.50;;;;;9.32;55.58;102759.41;5111940;27;45336;-87
2024/01/31 03:29:13;;;;;;;;;13.50;9.75;;;;;9.41;56.18;102780.50;5123481;27;45537;-87
2024/01/31 03:31:38;;;;;;;;;10.00;10.00;;;;;9.53;56.21;102797.13;5123133;27;46661;-85
2024/01/31 03:34:04;;;;;;;;;8.50;8.50;;;;;9.46;56.03;102781.28;5122493;27;45387;-84
2024/01/31 03:36:30;;;;;;;;;8.50;7.25;;;;;9.54;54.95;102785.59;5118187;27;44747;-84
2024/01/31 03:38:58;;;;;;;;;8.75;8.00;;;;;9.50;55.60;102779.44;5105633;27;45473;-86
2024/01/31 03:41:24;;;;;;;;;8.25;8.25;;;;;9.48;55.47;102772.41;5136968;27;45287;-86
2024/01/31 03:43:50;;;;;;;;;8.00;8.00;;;;;9.41;55.33;102769.88;5128775;27;45849;-85
2024/01/31 03:46:15;;;;;;;;;7.75;7.75;;;;;9.39;56.12;102761.06;5121008;27;45301;-86
2024/01/31 03:48:40;;;;;;;;;12.00;9.75;;;;;9.61;56.10;102797.88;5122414;27;45725;-87
2024/01/31 03:51:06;;;;;;;;;14.50;12.00;;;;;9.57;55.98;102801.50;5122905;27;46173;-86
2024/01/31 03:53:31;;;;;;;;;6.00;6.00;;;;;9.35;54.91;102780.56;5129565;27;46795;-87
2024/01/31 03:55:56;;;;;;;;;5.00;3.00;;;;;9.42;55.82;102813.25;5136321;27;45351;-86
2024/01/31 03:58:21;;;;;;;;;9.00;7.50;;;;;9.47;55.64;102800.75;5129803;27;45234;-87
2024/01/31 04:00:47;;;;;;;;;11.00;9.75;;;;;9.44;55.44;102804.34;5142624;27;45934;-87
2024/01/31 04:03:12;;;;;;;;;7.00;7.00;;;;;9.52;56.33;102808.66;5134911;27;45427;-86
2024/01/31 04:05:38;;;;;;;;;12.00;9.25;;;;;9.18;56.17;102749.91;5122046;27;45484;-86
2024/01/31 04:08:04;;;;;;;;;9.00;8.00;;;;;9.59;55.77;102813.84;5103718;27;45571;-86
2024/01/31 04:10:29;;;;;;;;;10.50;9.00;;;;;9.29;55.17;102775.38;5123124;27;45457;-86
2024/01/31 04:12:54;;;;;;;;;6.75;6.75;;;;;9.50;55.60;102808.66;5124297;27;45302;-86
2024/01/31 04:15:20;;;;;;;;;12.00;9.00;;;;;9.42;55.21;102795.53;5142861;27;45248;-87
2024/01/31 04:17:45;;;;;;;;;8.00;8.00;;;;;9.41;55.29;102801.75;5140654;27;45531;-86
2024/01/31 04:20:11;;;;;;;;;10.00;8.00;;;;;9.50;54.52;102811.31;5133122;27;46460;-86
2024/01/31 04:22:37;;;;;;;;;11.00;8.50;;;;;9.41;55.30;102812.38;5112888;27;45649;-87
2024/01/31 04:25:04;;;;;;;;;11.00;9.00;;;;;9.43;56.21;102804.38;5125737;27;45466;-86
2024/01/31 04:27:29;;;;;;;;;9.00;9.00;;;;;9.46;56.08;102817.59;5123389;27;45843;-85
2024/01/31 04:29:54;;;;;;;;;6.25;6.00;;;;;9.42;55.35;102808.81;5125374;27;46119;-86
2024/01/31 04:32:22;;;;;;;;;10.25;8.00;;;;;9.33;55.76;102795.66;5140636;27;45393;-87
2024/01/31 04:34:47;;;;;;;;;8.00;7.50;;;;;9.41;55.81;102807.06;5142152;27;45690;-86
2024/01/31 04:37:13;;;;;;;;;10.00;10.00;;;;;9.45;55.63;102816.72;5125279;27;45798;-86
2024/01/31 04:39:41;;;;;;;;;9.75;9.50;;;;;9.09;55.87;102764.19;5121343;27;46072;-87
2024/01/31 04:42:10;;;;;;;;;9.75;9.75;;;;;9.30;56.01;102785.09;5133964;27;45410;-87
2024/01/31 04:44:35;;;;;;;;;8.00;7.25;;;;;9.24;54.91;102793.16;5123830;27;45450;-87
2024/01/31 04:47:03;;;;;;;;;8.75;8.75;;;;;9.07;54.79;102752.72;5134324;27;45453;-86
2024/01/31 04:49:31;;;;;;;;;7.75;7.75;;;;;9.22;54.91;102776.38;5123457;27;45781;-86
2024/01/31 04:51:57;;;;;;;;;7.00;7.00;;;;;9.37;55.43;102807.09;5123312;27;45427;-87
2024/01/31 04:54:23;;;;;;;;;7.50;7.50;;;;;9.14;54.55;102749.09;5122893;27;45354;-87
2024/01/31 04:56:51;;;;;;;;;10.50;7.50;;;;;9.14;53.70;102746.44;5123832;27;45373;-86
2024/01/31 04:59:19;;;;;;;;;7.25;6.75;;;;;9.16;54.42;102744.63;5141038;27;45632;-85
2024/01/31 05:01:44;;;;;;;;;4.00;4.00;;;;;9.41;54.43;102791.13;5141533;27;45283;-85
2024/01/31 05:04:10;;;;;;;;;5.25;4.00;;;;;9.12;54.36;102751.75;5111662;27;45613;-85
2024/01/31 05:06:35;;;;;;;;;9.50;6.00;;;;;8.96;53.80;102730.75;5141430;27;45523;-86
2024/01/31 05:09:08;;;;;;;;;7.25;6.00;;;;;9.02;54.07;102744.84;5119802;27;46950;-85
2024/01/31 05:11:36;;;;;;;;;4.00;4.00;;;;;9.01;53.89;102743.09;5124410;27;45361;-85
2024/01/31 05:14:03;;;;;;;;;5.25;5.25;;;;;9.01;54.24;102743.09;5122305;27;45419;-87
2024/01/31 05:16:31;;;;;;;;;6.75;6.00;;;;;9.02;54.97;102730.69;5127934;27;45431;-85
2024/01/31 05:19:03;;;;;;;;;5.00;4.00;;;;;9.24;53.49;102771.91;5104254;27;47516;-86
2024/01/31 05:21:28;;;;;;;;;7.75;7.00;;;;;8.95;53.52;102713.97;5121838;27;45510;-86
2024/01/31 05:23:54;;;;;;;;;7.25;7.25;;;;;9.02;54.91;102728.03;5131292;27;44990;-85
2024/01/31 05:26:19;;;;;;;;;8.00;7.00;;;;;9.22;53.79;102775.50;5135535;27;45666;-84
2024/01/31 05:28:44;;;;;;;;;4.50;4.50;;;;;9.19;53.90;102772.88;5107555;27;47185;-86
2024/01/31 05:31:10;;;;;;;;;5.25;5.25;;;;;9.20;54.54;102775.53;5122322;27;45239;-85
2024/01/31 05:33:35;;;;;;;;;5.75;5.25;;;;;9.24;54.03;102766.59;5121632;27;47005;-87
2024/01/31 05:36:01;;;;;;;;;5.75;5.75;;;;;9.21;53.29;102764.00;5127990;27;45319;-87
2024/01/31 05:38:26;;;;;;;;;5.50;5.50;;;;;8.99;54.10;102738.72;5140300;27;46126;-87
2024/01/31 05:40:52;;;;;;;;;6.50;6.00;;;;;8.89;53.41;102715.84;5140727;27;45812;-85
2024/01/31 05:43:18;;;;;;;;;4.00;4.00;;;;;9.16;53.68;102752.59;5126365;27;45433;-84
2024/01/31 05:45:43;;;;;;;;;4.25;4.25;;;;;8.92;53.57;102713.16;5142360;27;45379;-86
2024/01/31 05:48:08;;;;;;;;;4.75;4.75;;;;;9.18;53.42;102769.34;5119599;27;46141;-87
2024/01/31 05:50:34;;;;;;;;;5.25;4.00;;;;;9.19;53.11;102763.16;5122604;27;45347;-86
2024/01/31 05:52:59;;;;;;;;;12.25;7.00;;;;;9.15;54.12;102769.41;5135078;27;45317;-83
2024/01/31 05:55:24;;;;;;;;;6.00;6.00;;;;;9.20;53.88;102758.72;5140616;27;45502;-85
2024/01/31 05:57:50;;;;;;;;;5.25;5.25;;;;;9.15;53.60;102748.19;5130610;27;46297;-85
2024/01/31 06:00:16;;;;;;;;;4.00;4.00;;;;;9.21;53.91;102756.03;5138198;27;45479;-88
2024/01/31 06:02:42;;;;;;;;;5.75;5.75;;;;;9.19;53.80;102741.03;5121211;27;45523;-86
2024/01/31 06:05:08;;;;;;;;;5.00;3.00;;;;;9.26;53.41;102743.56;5124529;27;45502;-85
2024/01/31 06:07:33;;;;;;;;;7.25;4.00;;;;;9.04;53.08;102708.53;5123794;27;46587;-87
2024/01/31 06:09:59;;;;;;;;;7.00;6.00;;;;;9.20;53.00;102741.00;5137425;27;45550;-85
2024/01/31 06:12:24;;;;;;;;;5.50;5.25;;;;;9.06;53.72;102719.13;5132422;27;45301;-85
2024/01/31 06:14:49;;;;;;;;;5.50;5.25;;;;;9.21;53.90;102750.72;5116691;27;45573;-84
2024/01/31 06:17:17;;;;;;;;;7.25;6.50;;;;;9.20;53.85;102748.97;5131594;27;46516;-87
2024/01/31 06:19:43;;;;;;;;;6.75;6.75;;;;;9.20;53.73;102737.47;5128748;27;45611;-85
2024/01/31 06:22:08;;;;;;;;;8.00;3.75;;;;;9.04;53.65;102711.19;5133169;27;45440;-86
2024/01/31 06:24:33;;;;;;;;;6.00;6.00;;;;;9.09;53.11;102737.63;5122755;27;45394;-86
2024/01/31 06:26:59;;;;;;;;;6.25;6.25;;;;;8.96;54.28;102733.41;5103283;27;45362;-90
2024/01/31 06:29:24;;;;;;;;;2.75;2.75;;;;;8.93;54.43;102717.56;5105087;27;45376;-88
2024/01/31 06:31:51;;;;;;;;;4.50;3.75;;;;;9.01;53.86;102737.78;5139641;27;45326;-91
2024/01/31 06:34:18;;;;;;;;;7.75;5.75;;;;;9.00;54.56;102729.84;5125115;27;45313;-90
2024/01/31 06:36:45;;;;;;;;;3.75;3.75;;;;;8.85;53.86;102721.22;5123389;27;46036;-89
2024/01/31 06:39:10;;;;;;;;;8.25;3.75;;;;;8.77;54.22;102706.31;5122578;27;45393;-90
2024/01/31 06:41:37;;;;;;;;;7.00;4.00;;;;;8.70;54.44;102716.09;5102192;27;45421;-87
2024/01/31 06:44:03;;;;;;;;;4.00;4.00;;;;;8.80;54.92;102738.97;5120589;27;45277;-87
2024/01/31 06:46:29;;;;;;;;;6.25;6.25;;;;;8.74;54.78;102736.41;5140441;27;46206;-87
2024/01/31 06:48:55;;;;;;;;;3.00;3.00;;;;;8.72;55.54;102743.47;5124496;27;45452;-89
2024/01/31 06:51:20;;;;;;;;;3.00;3.00;;;;;8.70;54.95;102733.81;5123083;27;45344;-86
2024/01/31 06:53:58;;;;;;;;;5.50;5.50;;;;;8.71;55.76;102741.72;5123116;27;45203;-93
2024/01/31 06:56:24;;;;;;;;;7.00;4.50;;;;;8.32;56.25;102670.66;5115614;27;46654;-84
2024/01/31 06:58:49;;;;;;;;;7.25;7.00;;;;;8.45;56.74;102688.19;5125013;27;45353;-86
2024/01/31 07:01:21;;;;;;;;;11.50;7.25;;;;;8.65;57.13;102715.31;5123171;27;45614;-86
2024/01/31 07:03:47;;;;;;;;;6.25;4.00;;;;;8.86;56.48;102741.53;5123597;27;45273;-87
2024/01/31 07:06:15;;;;;;;;;36.75;14.00;;;;;8.84;56.69;102745.97;5104742;27;46210;-84
2024/01/31 07:08:41;;;;;;;;;5.00;3.75;;;;;8.92;56.62;102742.34;5122828;27;45218;-89
2024/01/31 07:11:10;;;;;;;;;7.25;4.00;;;;;9.01;56.61;102753.69;5102743;27;45196;-83
2024/01/31 07:13:38;;;;;;;;;7.75;7.50;;;;;9.00;57.56;102749.28;5114603;27;45721;-82
2024/01/31 07:16:05;;;;;;;;;8.75;5.75;;;;;9.17;57.55;102738.41;5117325;27;45444;-85
2024/01/31 07:18:32;;;;;;;;;6.75;4.00;;;;;9.29;57.95;102742.66;5125953;27;45519;-88
2024/01/31 07:20:58;;;;;;;;;6.25;6.25;;;;;9.61;58.81;102744.72;5123666;27;45387;-88
2024/01/31 07:23:24;;;;;;;;;7.75;7.00;;;;;9.85;58.31;102744.28;5132992;27;45410;-84
2024/01/31 07:25:55;;;;;;;;;12.75;7.25;;;;;9.95;57.96;102739.69;5131589;27;45462;-86
2024/01/31 07:28:22;;;;;;;;;8.00;6.75;;;;;9.81;56.07;102702.75;5131923;27;45382;-86
2024/01/31 07:30:47;;;;;;;;;7.50;5.50;;;;;9.95;55.66;102755.63;5129949;27;45475;-87
2024/01/31 07:33:13;;;;;;;;;7.00;7.00;;;;;9.77;55.59;102746.25;5128791;27;45618;-92
2024/01/31 07:35:39;;;;;;;;;8.25;5.25;;;;;9.65;56.09;102746.47;5123146;27;46140;-92
2024/01/31 07:38:05;;;;;;;;;7.00;7.00;;;;;9.72;57.29;102770.22;5122499;27;45288;-86
2024/01/31 07:40:30;;;;;;;;;4.00;4.00;;;;;9.53;56.76;102757.28;5127587;27;45562;-94
2024/01/31 07:43:04;;;;;;;;;6.50;6.50;;;;;9.57;57.63;102778.47;5127589;27;45172;-86
2024/01/31 07:45:29;;;;;;;;;9.00;8.00;;;;;9.45;56.71;102762.72;5134610;27;45067;-93
2024/01/31 07:47:56;;;;;;;;;6.50;6.00;;;;;9.49;57.01;102782.13;5124831;27;45279;-87
2024/01/31 07:50:22;;;;;;;;;2.75;2.00;;;;;9.38;57.14;102769.06;5121464;27;45409;-87
2024/01/31 07:52:47;;;;;;;;;8.75;7.00;;;;;9.47;57.30;102779.50;5128007;27;45305;-87
2024/01/31 07:55:13;;;;;;;;;8.00;7.00;;;;;9.55;56.79;102782.03;5127376;27;45427;-89
2024/01/31 07:57:39;;;;;;;;;9.75;6.25;;;;;9.52;56.79;102763.50;5116967;27;45500;-88
2024/01/31 08:00:06;;;;;;;;;8.50;7.50;;;;;9.55;56.92;102766.09;5121384;27;45259;-88
2024/01/31 08:02:32;;;;;;;;;8.75;8.75;;;;;9.54;56.74;102765.22;5137975;27;45478;-88
2024/01/31 08:04:57;;;;;;;;;13.50;8.75;;;;;9.46;57.23;102765.34;5125950;27;46304;-84
2024/01/31 08:07:25;;;;;;;;;7.50;7.50;;;;;9.37;57.96;102757.53;5135847;27;46440;-86
2024/01/31 08:09:51;;;;;;;;;9.75;9.00;;;;;9.36;58.46;102757.56;5111472;27;45474;-86
2024/01/31 08:12:17;;;;;;;;;10.00;8.50;;;;;9.19;58.70;102725.09;5128135;27;45390;-88
2024/01/31 08:14:44;;;;;;;;;11.50;9.00;;;;;9.34;58.35;102751.41;5112381;27;48403;-90
2024/01/31 08:17:11;;;;;;;;;9.75;9.75;;;;;9.08;58.72;102704.91;5122459;27;45834;-90
2024/01/31 08:19:36;;;;;;;;;11.50;11.00;;;;;9.25;59.31;102730.34;5121373;27;45220;-91
2024/01/31 08:22:03;;;;;;;;;9.00;9.00;;;;;9.44;59.24;102748.56;5152705;27;45156;-90
2024/01/31 08:24:34;;;;;;;;;7.75;7.75;;;;;9.30;58.71;102729.34;5118114;27;48082;-95
2024/01/31 08:27:00;;;;;;;;;6.75;6.75;;;;;9.03;59.51;102687.31;5147523;27;45396;-91
2024/01/31 08:29:25;;;;;;;;;10.00;9.00;;;;;9.41;59.22;102759.25;5123234;27;45512;-91
2024/01/31 08:31:50;;;;;;;;;11.00;9.00;;;;;9.31;59.02;102735.53;5122646;27;45596;-92
2024/01/31 08:34:17;;;;;;;;;7.75;7.50;;;;;9.48;59.30;102765.31;5124318;27;46385;-89
2024/01/31 08:36:42;;;;;;;;;13.75;11.00;;;;;9.48;59.44;102761.78;5112042;27;45441;-88
2024/01/31 08:39:08;;;;;;;;;9.50;9.50;;;;;9.54;59.46;102759.03;5133655;27;45413;-88
2024/01/31 08:41:34;;;;;;;;;12.00;9.75;;;;;9.65;59.43;102767.72;5131885;27;45328;-87
2024/01/31 08:44:01;;;;;;;;;9.25;7.00;;;;;9.39;59.53;102718.56;5128109;27;48146;-87
2024/01/31 08:46:28;;;;;;;;;15.50;10.00;;;;;9.68;59.17;102767.66;5140433;27;45337;-89
2024/01/31 08:48:53;;;;;;;;;7.00;7.00;;;;;9.59;59.56;102758.06;5148230;27;45334;-88
2024/01/31 08:51:19;;;;;;;;;9.25;9.25;;;;;9.68;60.13;102772.97;5140019;27;45615;-89
2024/01/31 08:53:44;;;;;;;;;10.00;8.25;;;;;9.46;60.46;102746.75;5128524;27;45582;-88
2024/01/31 08:56:10;;;;;;;;;9.00;8.50;;;;;9.40;60.06;102725.63;5120981;27;45471;-91
2024/01/31 08:58:35;;;;;;;;;8.50;8.00;;;;;9.74;59.58;102762.22;5125470;27;45467;-89
2024/01/31 09:01:01;;;;;;;;;8.25;7.75;;;;;9.86;59.28;102777.94;5143806;27;45441;-89
2024/01/31 09:03:26;;;;;;;;;14.00;9.75;;;;;9.71;59.00;102735.69;5596942;22;47382;-84
2024/01/31 09:05:52;;;;;;;;;10.25;9.00;;;;;10.02;59.74;102779.41;5018893;28;45356;-86
2024/01/31 09:08:17;;;;;;;;;9.25;8.25;;;;;10.09;59.17;102784.63;5036173;28;45248;-89
2024/01/31 09:10:43;;;;;;;;;11.00;10.00;;;;;10.14;59.46;102790.72;5033709;28;45597;-87
2024/01/31 09:13:08;;;;;;;;;8.75;8.75;;;;;10.19;59.72;102778.22;5021251;28;50805;-89
2024/01/31 09:15:33;;;;;;;;;10.25;9.75;;;;;10.39;59.68;102796.47;5036330;28;45378;-86
2024/01/31 09:17:59;;;;;;;;;11.50;11.00;;;;;10.40;59.75;102783.13;5022582;28;44934;-89
2024/01/31 09:20:24;;;;;;;;;13.25;9.50;;;;;10.34;60.21;102788.59;5020252;28;45544;-86
2024/01/31 09:22:49;;;;;;;;;14.00;10.00;;;;;10.40;59.92;102774.25;5032618;28;47711;-85
2024/01/31 09:25:15;;;;;;;;;10.25;10.25;;;;;10.25;60.86;102770.13;5019652;28;45270;-83
2024/01/31 09:27:41;;;;;;;;;8.75;8.75;;;;;10.41;61.15;102784.88;5019084;28;45601;-88
2024/01/31 09:30:07;;;;;;;;;14.50;9.75;;;;;10.48;60.74;102785.63;5019506;28;45216;-85
2024/01/31 09:32:33;;;;;;;;;14.25;10.00;;;;;10.43;61.25;102780.44;5021052;28;47698;-89
2024/01/31 09:34:58;;;;;;;;;10.00;10.00;;;;;10.43;61.24;102775.09;5029453;28;45536;-87
2024/01/31 09:37:23;;;;;;;;;14.50;12.50;;;;;10.25;61.53;102743.53;5024646;28;45254;-86
2024/01/31 09:39:54;;;;;;;;;12.75;11.25;;;;;10.56;61.73;102781.91;5021849;28;44879;-86
2024/01/31 09:42:19;;;;;;;;;13.75;13.75;;;;;10.52;61.50;102774.88;5025358;28;45670;-93
2024/01/31 09:44:45;;;;;;;;;12.50;12.50;;;;;10.40;61.55;102731.72;5027963;28;45464;-93
2024/01/31 09:47:13;;;;;;;;;14.00;12.25;;;;;10.59;61.96;102744.59;5022278;28;45417;-92
2024/01/31 09:49:39;;;;;;;;;21.50;15.00;;;;;10.61;61.90;102753.41;5012715;28;45771;-90
2024/01/31 09:52:05;;;;;;;;;14.75;10.50;;;;;10.53;62.42;102742.06;5021459;28;45590;-86
2024/01/31 09:54:31;;;;;;;;;11.50;6.00;;;;;10.24;63.05;102704.56;5018911;28;45492;-86
2024/01/31 09:56:57;;;;;;;;;10.50;8.75;;;;;10.39;63.67;102740.59;5017743;28;45518;-87
2024/01/31 09:59:25;;;;;;;;;12.00;10.25;;;;;10.49;63.81;102736.84;5018077;28;45324;-86
2024/01/31 10:01:55;;;;;;;;;16.25;15.00;;;;;10.61;63.14;102744.56;5016971;28;46191;-84
2024/01/31 10:04:20;;;;;;;;;12.25;12.25;;;;;10.57;64.05;102735.78;5017708;28;45493;-86
2024/01/31 10:06:46;;;;;;;;;13.75;13.75;;;;;10.63;63.35;102734.75;5017920;28;45519;-87
2024/01/31 10:09:11;;;;;;;;;13.00;10.25;;;;;10.53;63.76;102703.94;5036934;28;45495;-88
2024/01/31 10:11:37;;;;;;;;;14.50;10.25;;;;;10.69;63.82;102724.00;5035353;28;48176;-87
2024/01/31 10:14:02;;;;;;;;;10.50;8.00;;;;;10.61;64.39;102708.19;5017189;28;45525;-85
2024/01/31 10:16:27;;;;;;;;;17.25;13.00;;;;;10.68;65.05;102716.91;5017973;28;45524;-81
2024/01/31 10:18:53;;;;;;;;;12.75;11.25;;;;;10.73;64.57;102704.38;5018370;28;45308;-85
2024/01/31 10:21:19;;;;;;;;;12.75;12.00;;;;;10.72;64.54;102701.75;5030685;28;45722;-85
2024/01/31 10:24:02;;;;;;;;;14.25;11.50;;;;;10.93;64.67;102717.19;5017178;28;45709;-88
2024/01/31 10:26:28;;;;;;;;;16.00;16.00;;;;;11.04;64.71;102709.84;5035176;28;45553;-85
2024/01/31 10:28:55;;;;;;;;;16.00;13.75;;;;;10.92;64.44;102681.72;5018284;28;45697;-87
2024/01/31 10:31:21;;;;;;;;;18.25;14.75;;;;;11.00;64.35;102701.97;5032289;28;46952;-86
2024/01/31 10:33:48;;;;;;;;;15.75;14.75;;;;;11.06;64.56;102701.81;5022160;28;44728;-87
2024/01/31 10:36:14;;;;;;;;;24.75;17.25;;;;;11.18;64.72;102706.81;5025431;28;45393;-87
2024/01/31 10:38:40;;;;;;;;;15.00;15.00;;;;;11.24;65.07;102706.69;5017760;28;48399;-86
2024/01/31 10:41:09;;;;;;;;;14.50;14.50;;;;;11.22;64.70;102714.72;5017886;28;45630;-87
2024/01/31 10:43:36;;;;;;;;;10.75;10.75;;;;;11.02;65.18;102702.81;5050861;28;45241;-91
2024/01/31 10:48:38;;;;;;;;;14.75;12.50;;;;;10.78;66.05;102672.31;5283161;22;45383;-85
2024/01/31 10:51:08;;;;;;;;;17.00;16.75;;;;;10.90;65.79;102695.97;5089588;27;46503;-89
2024/01/31 10:53:35;;;;;;;;;16.00;14.50;;;;;10.90;66.33;102666.69;5072117;28;45219;-89
2024/01/31 10:56:02;;;;;;;;;20.50;15.75;;;;;11.27;65.24;102695.06;5063151;28;45515;-91
2024/01/31 10:58:29;;;;;;;;;16.75;16.25;;;;;11.23;64.98;102694.28;5059245;28;45479;-87
2024/01/31 11:00:57;;;;;;;;;13.50;13.50;;;;;10.87;65.43;102641.03;5064997;28;48476;-91
2024/01/31 11:03:23;;;;;;;;;16.25;16.25;;;;;11.37;65.25;102697.47;5081501;28;45642;-87
2024/01/31 11:05:53;;;;;;;;;22.50;15.25;;;;;11.39;64.54;102646.81;5059121;28;45495;-89
2024/01/31 11:08:20;;;;;;;;;18.75;17.25;;;;;11.73;64.44;102690.28;5052839;28;45232;-85
2024/01/31 11:10:46;;;;;;;;;19.00;17.00;;;;;11.76;63.86;102666.22;5061893;28;46373;-86
2024/01/31 11:13:13;;;;;;;;;17.00;14.75;;;;;12.27;62.86;102686.13;5101659;27;45840;-87
2024/01/31 11:15:39;;;;;;;;;16.50;16.50;;;;;12.28;62.34;102659.41;5073722;28;44816;-87
2024/01/31 11:18:09;;;;;;;;;19.00;16.75;;;;;12.29;62.55;102685.16;5076440;28;45216;-89
2024/01/31 11:20:55;;;;;;;;;19.50;19.00;;;;;12.10;62.20;102658.13;5074129;28;45295;-83